createdAt,value
2019-02-23T20:24:54.990Z,22.00
2019-02-23T20:27:24.291Z,22.00
2019-02-23T20:29:53.649Z,22.00
2019-02-23T20:32:23.053Z,21.90
2019-02-23T20:34:52.414Z,22.00
2019-02-23T20:38:39.652Z,21.90
2019-02-23T20:41:11.202Z,21.90
2019-02-23T20:43:41.638Z,21.90
2019-02-23T20:46:12.205Z,21.90
2019-02-23T20:48:43.524Z,21.90
2019-02-23T20:51:13.988Z,21.90
2019-02-23T20:53:44.448Z,21.90
2019-02-23T20:56:14.886Z,21.90
2019-02-23T20:58:45.267Z,21.90
2019-02-23T21:01:15.663Z,21.90
2019-02-23T21:03:46.532Z,21.90
2019-02-23T21:06:16.968Z,21.90
2019-02-23T21:08:47.385Z,21.90
2019-02-23T21:11:17.879Z,21.80
2019-02-23T21:13:48.237Z,21.90
2019-02-23T21:16:18.721Z,21.80
2019-02-23T21:21:53.389Z,21.80
2019-02-23T21:24:22.721Z,21.80
2019-02-23T21:26:52.056Z,21.80
2019-02-23T21:29:21.435Z,21.80
2019-02-23T21:31:50.793Z,21.80
2019-02-23T21:34:20.126Z,21.80
2019-02-23T21:36:49.446Z,21.80
2019-02-23T21:39:18.825Z,21.80
2019-02-23T21:41:48.238Z,21.80
2019-02-23T21:44:17.623Z,21.80
2019-02-23T21:46:46.887Z,21.70
2019-02-23T21:49:16.250Z,21.70
2019-02-23T21:51:45.598Z,21.70
2019-02-23T21:54:14.946Z,21.70
2019-02-23T21:56:44.387Z,21.70
2019-02-23T21:59:13.734Z,21.70
2019-02-23T22:01:43.066Z,21.70
2019-02-23T22:04:12.420Z,21.70
2019-02-23T22:06:42.045Z,21.70
2019-02-23T22:09:11.356Z,21.70
2019-02-23T22:11:40.738Z,21.70
2019-02-23T22:14:10.048Z,21.70
2019-02-23T22:16:39.391Z,21.60
2019-02-23T22:19:08.714Z,21.60
2019-02-23T22:21:38.176Z,21.60
2019-02-23T22:24:07.470Z,21.60
2019-02-23T22:26:36.789Z,21.60
2019-02-23T22:29:06.172Z,21.60
2019-02-23T22:31:35.534Z,21.60
2019-02-23T22:34:04.837Z,21.60
2019-02-23T22:36:34.166Z,21.60
2019-02-23T22:39:04.514Z,21.60
2019-02-23T22:41:33.889Z,21.60
2019-02-23T22:44:03.863Z,21.50
2019-02-23T22:46:33.538Z,21.60
2019-02-23T22:49:03.139Z,21.60
2019-02-23T22:51:32.772Z,21.60
2019-02-23T22:54:02.399Z,21.60
2019-02-23T22:56:32.022Z,21.50
2019-02-23T22:59:01.819Z,21.50
2019-02-23T23:01:33.678Z,21.50
2019-02-23T23:04:03.591Z,21.50
2019-02-23T23:06:33.267Z,21.50
2019-02-23T23:09:02.965Z,21.50
2019-02-23T23:11:32.822Z,21.50
2019-02-23T23:14:02.530Z,21.50
2019-02-23T23:16:32.215Z,21.50
2019-02-23T23:19:01.815Z,21.50
2019-02-23T23:21:31.439Z,21.40
2019-02-23T23:24:01.060Z,21.50
2019-02-23T23:26:30.768Z,21.50
2019-02-23T23:29:00.398Z,21.50
2019-02-23T23:31:30.000Z,21.40
2019-02-23T23:33:59.643Z,21.40
2019-02-23T23:36:29.363Z,21.40
2019-02-23T23:38:58.992Z,21.40
2019-02-23T23:41:28.685Z,21.40
2019-02-23T23:43:58.359Z,21.40
2019-02-23T23:46:28.238Z,21.40
2019-02-23T23:48:57.933Z,21.30
2019-02-23T23:51:27.535Z,21.30
2019-02-23T23:53:57.205Z,21.30
2019-02-23T23:56:26.972Z,21.30
2019-02-23T23:58:56.905Z,21.40
